Time;durP1;ratioP1;P1;durP2;ratioP2;P2;SDS_P1;SDS_P2;PMS_P1;PMS_P2;Temp;Humidity;BMP_temperature;BMP_pressure;BME280_temperature;BME280_humidity;BME280_pressure;Samples;Min_cycle;Max_cycle;Signal;HPM_P1;HPM_P2
2021/07/12 00:00:35;;;;;;;6.38;3.20;;;;;;;;;;5039932;28;20025;-80
2021/07/12 00:03:02;;;;;;;5.32;3.42;;;;;;;;;;5037599;28;20107;-79
2021/07/12 00:05:31;;;;;;;5.32;3.03;;;;;;;;;;5036163;28;20032;-79
2021/07/12 00:07:57;;;;;;;6.22;3.25;;;;;;;;;;5035116;28;20064;-79
2021/07/12 00:10:24;;;;;;;3.83;2.80;;;;;;;;;;5035672;28;20056;-79
2021/07/12 00:12:51;;;;;;;9.57;3.67;;;;;;;;;;5017419;28;20044;-80
2021/07/12 00:15:19;;;;;;;5.55;3.10;;;;;;;;;;5035182;28;20025;-79
2021/07/12 00:17:45;;;;;;;5.45;2.92;;;;;;;;;;5037541;28;20097;-79
2021/07/12 00:20:13;;;;;;;5.45;2.90;;;;;;;;;;5041699;28;20126;-80
2021/07/12 00:22:39;;;;;;;7.07;3.60;;;;;;;;;;5039073;28;20025;-80
2021/07/12 00:25:06;;;;;;;7.50;3.42;;;;;;;;;;5042226;28;20025;-81
2021/07/12 00:27:32;;;;;;;6.85;3.40;;;;;;;;;;5038962;28;20487;-80
2021/07/12 00:29:58;;;;;;;5.22;3.28;;;;;;;;;;5023416;28;20035;-80
2021/07/12 00:32:25;;;;;;;8.70;3.70;;;;;;;;;;5040607;28;20021;-80
2021/07/12 00:34:51;;;;;;;8.75;4.00;;;;;;;;;;5035111;28;20030;-80
2021/07/12 00:37:17;;;;;;;8.90;3.58;;;;;;;;;;5040503;28;20117;-80
2021/07/12 00:39:43;;;;;;;8.77;3.38;;;;;;;;;;5045977;28;20038;-80
2021/07/12 00:42:09;;;;;;;8.90;3.65;;;;;;;;;;5040026;28;20057;-80
2021/07/12 00:44:35;;;;;;;8.25;3.83;;;;;;;;;;5041457;28;20030;-80
2021/07/12 00:47:02;;;;;;;6.18;3.20;;;;;;;;;;5036643;28;20017;-80
2021/07/12 00:49:28;;;;;;;5.50;2.88;;;;;;;;;;5018861;28;20554;-79
2021/07/12 00:51:55;;;;;;;9.15;3.30;;;;;;;;;;5035353;28;20018;-79
2021/07/12 00:54:27;;;;;;;6.68;3.40;;;;;;;;;;5035713;28;20029;-79
2021/07/12 00:56:53;;;;;;;7.00;3.65;;;;;;;;;;5036492;28;20025;-80
2021/07/12 00:59:19;;;;;;;7.85;3.20;;;;;;;;;;5018545;28;20026;-80
2021/07/12 01:01:45;;;;;;;5.38;3.08;;;;;;;;;;5035405;28;20045;-79
2021/07/12 01:04:12;;;;;;;4.28;2.83;;;;;;;;;;5040230;28;20486;-79
2021/07/12 01:06:38;;;;;;;8.77;3.33;;;;;;;;;;5040242;28;20029;-79
2021/07/12 01:09:04;;;;;;;8.65;3.47;;;;;;;;;;5039866;28;20041;-79
2021/07/12 01:11:42;;;;;;;4.63;3.13;;;;;;;;;;5039409;28;20033;-80
2021/07/12 01:14:27;;;;;;;5.38;2.95;;;;;;;;;;5039493;28;20022;-80
2021/07/12 01:16:59;;;;;;;11.25;3.58;;;;;;;;;;5021815;28;20033;-82
2021/07/12 01:19:25;;;;;;;10.35;3.40;;;;;;;;;;5039945;28;20029;-80
2021/07/12 01:22:08;;;;;;;6.72;3.40;;;;;;;;;;5021769;28;20017;-80
2021/07/12 01:24:34;;;;;;;;;;;;;;;;;;5040144;28;20045;-80
2021/07/12 01:27:37;;;;;;;6.28;3.13;;;;;;;;;;5039735;28;19916;-80
2021/07/12 01:30:03;;;;;;;4.45;3.10;;;;;;;;;;5021398;28;20029;-80
2021/07/12 01:32:35;;;;;;;7.30;3.25;;;;;;;;;;5022079;28;20502;-80
2021/07/12 01:35:14;;;;;;;6.25;3.22;;;;;;;;;;5021614;28;20026;-80
2021/07/12 01:37:46;;;;;;;4.80;3.00;;;;;;;;;;5038879;28;20017;-80
2021/07/12 01:40:20;;;;;;;4.38;3.13;;;;;;;;;;5026525;28;20053;-80
2021/07/12 01:42:54;;;;;;;7.68;3.20;;;;;;;;;;5021412;28;20229;-80
2021/07/12 01:45:22;;;;;;;4.28;2.75;;;;;;;;;;5031983;28;20025;-80
2021/07/12 01:48:02;;;;;;;6.90;3.10;;;;;;;;;;5035461;28;20514;-80
2021/07/12 01:50:36;;;;;;;8.82;3.63;;;;;;;;;;5020994;28;20026;-80
2021/07/12 01:53:11;;;;;;;8.85;3.40;;;;;;;;;;5038371;28;20065;-80
2021/07/12 01:55:37;;;;;;;6.65;3.42;;;;;;;;;;5021301;28;20089;-80
2021/07/12 01:58:08;;;;;;;8.48;3.40;;;;;;;;;;5020822;28;20026;-80
2021/07/12 02:00:34;;;;;;;13.75;4.00;;;;;;;;;;5020570;28;20029;-80
2021/07/12 02:03:01;;;;;;;8.80;3.38;;;;;;;;;;5021045;28;20500;-80
2021/07/12 02:05:30;;;;;;;7.50;3.88;;;;;;;;;;5037777;28;20025;-80
2021/07/12 02:07:56;;;;;;;6.97;3.78;;;;;;;;;;5020681;28;20101;-80
2021/07/12 02:10:26;;;;;;;11.73;3.92;;;;;;;;;;5020408;28;20033;-80
2021/07/12 02:12:54;;;;;;;9.63;3.67;;;;;;;;;;5038560;28;20033;-80
2021/07/12 02:15:20;;;;;;;5.80;3.25;;;;;;;;;;5037288;28;20100;-80
2021/07/12 02:17:51;;;;;;;9.30;3.55;;;;;;;;;;5038255;28;20109;-80
2021/07/12 02:20:19;;;;;;;10.65;3.63;;;;;;;;;;5037650;28;20092;-80
2021/07/12 02:22:46;;;;;;;12.07;4.00;;;;;;;;;;5041810;28;20053;-80
2021/07/12 02:25:13;;;;;;;9.90;3.38;;;;;;;;;;5058104;28;20051;-80
2021/07/12 02:27:39;;;;;;;12.18;4.13;;;;;;;;;;5027812;28;20408;-80
2021/07/12 02:30:06;;;;;;;11.50;4.40;;;;;;;;;;5037626;28;20034;-80
2021/07/12 02:32:32;;;;;;;12.80;3.47;;;;;;;;;;5037872;28;20025;-80
2021/07/12 02:34:59;;;;;;;9.05;4.15;;;;;;;;;;5038563;28;20018;-80
2021/07/12 02:37:25;;;;;;;8.43;3.90;;;;;;;;;;5041974;28;20024;-80
2021/07/12 02:39:52;;;;;;;10.57;4.28;;;;;;;;;;5058471;28;20028;-80
2021/07/12 02:42:19;;;;;;;10.50;3.67;;;;;;;;;;5056868;28;20033;-79
2021/07/12 02:44:46;;;;;;;10.18;4.45;;;;;;;;;;5058134;28;20029;-80
2021/07/12 02:47:13;;;;;;;11.75;4.13;;;;;;;;;;5057405;28;20059;-80
2021/07/12 02:49:39;;;;;;;9.88;4.68;;;;;;;;;;5058626;28;20025;-80
2021/07/12 02:52:18;;;;;;;8.18;4.20;;;;;;;;;;5057371;28;20020;-79
2021/07/12 02:54:45;;;;;;;11.65;4.15;;;;;;;;;;5057546;28;20032;-80
2021/07/12 02:57:11;;;;;;;7.82;4.57;;;;;;;;;;5057118;28;20100;-79
2021/07/12 02:59:38;;;;;;;10.18;4.35;;;;;;;;;;5057925;28;20103;-80
2021/07/12 03:02:04;;;;;;;13.15;4.35;;;;;;;;;;5056635;28;20036;-80
2021/07/12 03:04:30;;;;;;;12.05;4.38;;;;;;;;;;5054943;28;20017;-79
2021/07/12 03:06:58;;;;;;;10.18;4.47;;;;;;;;;;5021280;28;20025;-79
2021/07/12 03:09:28;;;;;;;14.50;4.82;;;;;;;;;;5048041;28;20518;-79
2021/07/12 03:12:00;;;;;;;11.65;4.68;;;;;;;;;;5038529;28;20025;-79
2021/07/12 03:14:30;;;;;;;11.43;4.35;;;;;;;;;;5047629;28;20053;-80
2021/07/12 03:16:57;;;;;;;12.75;4.38;;;;;;;;;;5025242;28;20430;-80
2021/07/12 03:19:29;;;;;;;10.35;4.25;;;;;;;;;;5046189;28;20021;-80
2021/07/12 03:21:56;;;;;;;10.45;4.70;;;;;;;;;;5046305;28;20537;-80
2021/07/12 03:24:22;;;;;;;13.48;4.88;;;;;;;;;;5045705;28;20076;-80
2021/07/12 03:26:52;;;;;;;11.43;5.07;;;;;;;;;;5044724;28;20437;-80
2021/07/12 03:29:19;;;;;;;14.35;5.07;;;;;;;;;;5047177;28;20076;-80
2021/07/12 03:31:45;;;;;;;12.63;5.15;;;;;;;;;;5045749;28;20028;-80
2021/07/12 03:34:13;;;;;;;10.93;5.43;;;;;;;;;;5050843;28;20021;-80
2021/07/12 03:36:41;;;;;;;17.15;5.15;;;;;;;;;;5045807;28;20017;-80
2021/07/12 03:39:07;;;;;;;14.70;5.32;;;;;;;;;;5031773;28;20649;-80
2021/07/12 03:41:35;;;;;;;13.32;5.18;;;;;;;;;;5043084;28;20042;-80
2021/07/12 03:44:01;;;;;;;8.02;4.50;;;;;;;;;;5046548;28;20035;-80
2021/07/12 03:46:28;;;;;;;13.32;4.70;;;;;;;;;;5051928;28;20369;-80
2021/07/12 03:48:54;;;;;;;11.00;4.65;;;;;;;;;;5049740;28;20025;-80
2021/07/12 03:51:21;;;;;;;15.82;5.32;;;;;;;;;;5043960;28;20021;-80
2021/07/12 03:53:47;;;;;;;19.48;5.80;;;;;;;;;;5044034;28;20033;-80
2021/07/12 03:56:13;;;;;;;15.95;5.13;;;;;;;;;;5027795;28;20028;-80
2021/07/12 03:58:40;;;;;;;15.98;5.70;;;;;;;;;;5043305;28;20024;-80
2021/07/12 04:01:06;;;;;;;15.40;4.43;;;;;;;;;;5044853;28;20041;-80
2021/07/12 04:03:32;;;;;;;15.15;5.32;;;;;;;;;;5049678;28;20041;-80
2021/07/12 04:05:59;;;;;;;14.00;4.97;;;;;;;;;;5049236;28;20027;-80
2021/07/12 04:08:25;;;;;;;19.80;5.20;;;;;;;;;;5027004;28;20056;-80
2021/07/12 04:10:51;;;;;;;20.80;5.47;;;;;;;;;;5045626;28;20508;-80
2021/07/12 04:13:17;;;;;;;14.52;4.88;;;;;;;;;;5052480;28;20052;-80
2021/07/12 04:15:44;;;;;;;12.73;4.40;;;;;;;;;;5031050;28;20518;-80
2021/07/12 04:18:10;;;;;;;15.38;5.03;;;;;;;;;;5027456;28;20443;-80
2021/07/12 04:20:37;;;;;;;16.00;4.80;;;;;;;;;;5028822;28;20021;-80
2021/07/12 04:23:04;;;;;;;17.45;5.80;;;;;;;;;;5043569;28;20049;-80
2021/07/12 04:25:30;;;;;;;15.90;5.28;;;;;;;;;;5048633;28;20021;-80
2021/07/12 04:27:57;;;;;;;23.98;5.38;;;;;;;;;;5027365;28;20021;-80
2021/07/12 04:30:24;;;;;;;12.45;5.03;;;;;;;;;;5027841;28;20070;-80
2021/07/12 04:32:50;;;;;;;18.35;5.45;;;;;;;;;;5031483;28;20024;-82
2021/07/12 04:35:16;;;;;;;18.25;5.60;;;;;;;;;;5051534;28;20041;-82
2021/07/12 04:37:43;;;;;;;22.55;6.07;;;;;;;;;;5049056;28;20029;-82
2021/07/12 04:40:09;;;;;;;51.22;8.68;;;;;;;;;;5050069;28;20045;-82
2021/07/12 04:42:36;;;;;;;30.95;6.72;;;;;;;;;;5035291;28;20033;-82
2021/07/12 04:45:02;;;;;;;28.38;6.53;;;;;;;;;;5051142;28;20066;-82
2021/07/12 04:47:28;;;;;;;28.52;6.45;;;;;;;;;;5051050;28;20028;-82
2021/07/12 04:49:55;;;;;;;27.40;5.68;;;;;;;;;;5032986;28;20400;-82
2021/07/12 04:52:21;;;;;;;21.10;6.18;;;;;;;;;;5031085;28;20049;-82
2021/07/12 04:54:47;;;;;;;22.15;6.10;;;;;;;;;;5061387;28;20027;-82
2021/07/12 04:57:13;;;;;;;22.63;6.07;;;;;;;;;;5060396;28;20021;-82
2021/07/12 04:59:40;;;;;;;17.08;5.75;;;;;;;;;;5052098;28;20103;-82
2021/07/12 05:02:10;;;;;;;19.58;6.00;;;;;;;;;;5042100;28;20116;-82
2021/07/12 05:04:36;;;;;;;23.40;6.00;;;;;;;;;;5040630;28;20017;-82
2021/07/12 05:07:03;;;;;;;24.58;6.10;;;;;;;;;;5058743;28;20071;-82
2021/07/12 05:09:30;;;;;;;14.38;5.40;;;;;;;;;;5039392;28;20070;-82
2021/07/12 05:11:56;;;;;;;21.77;6.47;;;;;;;;;;5064096;28;20079;-82
2021/07/12 05:14:24;;;;;;;22.55;5.38;;;;;;;;;;5053845;28;20028;-82
2021/07/12 05:16:50;;;;;;;19.23;5.60;;;;;;;;;;5052450;28;20016;-82
2021/07/12 05:19:16;;;;;;;22.55;6.05;;;;;;;;;;5048647;28;20068;-82
2021/07/12 05:21:43;;;;;;;16.77;5.55;;;;;;;;;;5059140;28;20116;-82
2021/07/12 05:24:09;;;;;;;14.05;5.68;;;;;;;;;;5061828;28;20040;-83
2021/07/12 05:26:35;;;;;;;16.10;5.10;;;;;;;;;;5059909;28;20025;-82
2021/07/12 05:29:01;;;;;;;15.10;6.00;;;;;;;;;;5069619;28;20025;-82
2021/07/12 05:31:27;;;;;;;16.40;5.18;;;;;;;;;;5057387;28;20037;-82
2021/07/12 05:33:53;;;;;;;17.77;5.78;;;;;;;;;;5068911;28;20025;-82
2021/07/12 05:36:19;;;;;;;15.73;5.65;;;;;;;;;;5062904;28;20032;-82
2021/07/12 05:38:45;;;;;;;20.13;6.20;;;;;;;;;;5066217;28;20025;-82
2021/07/12 05:41:12;;;;;;;22.42;5.72;;;;;;;;;;5039892;28;20036;-82
2021/07/12 05:43:38;;;;;;;18.65;5.28;;;;;;;;;;5040414;28;20411;-82
2021/07/12 05:46:05;;;;;;;15.75;5.35;;;;;;;;;;5040946;28;20029;-82
2021/07/12 05:48:31;;;;;;;18.75;5.80;;;;;;;;;;5040405;28;20069;-82
2021/07/12 05:50:57;;;;;;;20.20;6.30;;;;;;;;;;5059007;28;20163;-82
2021/07/12 05:53:24;;;;;;;16.33;5.35;;;;;;;;;;5059285;28;20021;-82
2021/07/12 05:55:50;;;;;;;19.40;6.25;;;;;;;;;;5041898;28;20032;-82
2021/07/12 05:58:16;;;;;;;20.45;5.70;;;;;;;;;;5060309;28;20025;-82
2021/07/12 06:00:42;;;;;;;13.50;5.85;;;;;;;;;;5059417;28;20036;-82
2021/07/12 06:03:08;;;;;;;13.55;5.70;;;;;;;;;;5059971;28;20113;-82
2021/07/12 06:05:34;;;;;;;23.73;6.40;;;;;;;;;;5059339;28;20025;-82
2021/07/12 06:08:00;;;;;;;19.70;6.10;;;;;;;;;;5041326;28;20025;-82
2021/07/12 06:10:26;;;;;;;18.05;6.07;;;;;;;;;;5059827;28;20025;-82
2021/07/12 06:12:52;;;;;;;14.35;5.53;;;;;;;;;;5059225;28;20028;-82
2021/07/12 06:15:19;;;;;;;18.25;5.88;;;;;;;;;;5059282;28;20096;-82
2021/07/12 06:17:45;;;;;;;14.77;6.38;;;;;;;;;;5041478;28;20033;-82
2021/07/12 06:20:17;;;;;;;19.48;7.10;;;;;;;;;;5040082;28;20021;-82
2021/07/12 06:22:44;;;;;;;15.68;6.20;;;;;;;;;;5020924;28;20041;-82
2021/07/12 06:25:10;;;;;;;18.70;6.10;;;;;;;;;;5039102;28;20383;-82
2021/07/12 06:27:36;;;;;;;14.48;5.60;;;;;;;;;;5033252;28;20495;-82
2021/07/12 06:30:03;;;;;;;22.35;6.40;;;;;;;;;;5058611;28;20116;-82
2021/07/12 06:32:29;;;;;;;25.67;6.53;;;;;;;;;;5041590;28;20031;-82
2021/07/12 06:34:56;;;;;;;20.17;6.55;;;;;;;;;;5040701;28;20017;-82
2021/07/12 06:37:22;;;;;;;19.70;6.45;;;;;;;;;;5055910;28;20044;-82
2021/07/12 06:39:48;;;;;;;25.35;7.13;;;;;;;;;;5039559;28;20021;-82
2021/07/12 06:42:14;;;;;;;23.75;7.07;;;;;;;;;;5020746;28;20105;-82
2021/07/12 06:44:40;;;;;;;22.67;6.57;;;;;;;;;;5021521;28;20072;-82
2021/07/12 06:47:06;;;;;;;15.27;5.97;;;;;;;;;;5039753;28;20036;-82
2021/07/12 06:49:32;;;;;;;19.25;5.47;;;;;;;;;;5040366;28;20029;-82
2021/07/12 06:51:58;;;;;;;24.35;6.20;;;;;;;;;;5040171;28;20037;-82
2021/07/12 06:54:24;;;;;;;16.17;5.57;;;;;;;;;;5039130;28;20120;-82
2021/07/12 06:56:50;;;;;;;15.77;5.63;;;;;;;;;;5040143;28;20492;-82
2021/07/12 06:59:16;;;;;;;14.75;5.07;;;;;;;;;;5038963;28;20073;-82
2021/07/12 07:01:44;;;;;;;15.25;5.65;;;;;;;;;;5040369;28;20580;-82
2021/07/12 07:04:11;;;;;;;16.00;6.07;;;;;;;;;;5033280;28;20025;-79
2021/07/12 07:06:38;;;;;;;16.10;5.68;;;;;;;;;;5052193;28;20430;-81
2021/07/12 07:09:04;;;;;;;14.10;5.00;;;;;;;;;;5040083;28;20476;-79
2021/07/12 07:11:31;;;;;;;13.40;5.72;;;;;;;;;;5055489;28;20403;-79
2021/07/12 07:13:58;;;;;;;22.63;6.10;;;;;;;;;;5018841;28;20033;-82
2021/07/12 07:16:24;;;;;;;16.60;5.95;;;;;;;;;;5036170;28;20075;-79
2021/07/12 07:18:50;;;;;;;18.92;6.22;;;;;;;;;;5037775;28;20454;-78
2021/07/12 07:21:17;;;;;;;19.75;7.75;;;;;;;;;;5053294;28;20032;-79
2021/07/12 07:23:43;;;;;;;22.30;6.40;;;;;;;;;;5051261;28;20079;-78
2021/07/12 07:26:10;;;;;;;23.45;6.40;;;;;;;;;;5053654;28;20029;-79
2021/07/12 07:28:37;;;;;;;21.48;6.82;;;;;;;;;;5044483;28;20017;-77
2021/07/12 07:31:03;;;;;;;25.88;6.60;;;;;;;;;;5051072;28;20037;-78
2021/07/12 07:33:29;;;;;;;18.60;6.35;;;;;;;;;;5051909;28;20032;-78
2021/07/12 07:35:58;;;;;;;28.20;7.32;;;;;;;;;;5046387;28;20483;-77
2021/07/12 07:38:24;;;;;;;27.95;7.22;;;;;;;;;;5018049;28;20033;-79
2021/07/12 07:40:51;;;;;;;21.70;6.78;;;;;;;;;;5041493;28;20037;-78
2021/07/12 07:43:17;;;;;;;22.05;6.57;;;;;;;;;;5034450;28;20021;-78
2021/07/12 07:45:43;;;;;;;26.10;6.78;;;;;;;;;;5052978;28;20060;-78
2021/07/12 07:48:10;;;;;;;25.23;6.90;;;;;;;;;;5053413;28;20037;-78
2021/07/12 07:50:40;;;;;;;25.35;6.82;;;;;;;;;;5054179;28;20029;-79
2021/07/12 07:53:07;;;;;;;22.30;6.57;;;;;;;;;;5035518;28;20021;-79
2021/07/12 07:55:33;;;;;;;21.63;7.03;;;;;;;;;;5054728;28;20033;-80
2021/07/12 07:57:59;;;;;;;26.02;7.47;;;;;;;;;;5054157;28;20472;-79
2021/07/12 08:00:27;;;;;;;24.45;7.70;;;;;;;;;;5035885;28;20033;-79
2021/07/12 08:02:53;;;;;;;21.23;7.05;;;;;;;;;;5054160;28;20036;-79
2021/07/12 08:05:23;;;;;;;20.55;6.50;;;;;;;;;;5054877;28;20017;-79
2021/07/12 08:07:49;;;;;;;22.98;7.15;;;;;;;;;;5059998;28;20029;-80
2021/07/12 08:10:16;;;;;;;19.27;7.75;;;;;;;;;;5057581;28;20033;-81
2021/07/12 08:12:43;;;;;;;19.63;7.65;;;;;;;;;;5036605;28;20025;-80
2021/07/12 08:15:10;;;;;;;19.60;6.97;;;;;;;;;;5056941;28;20043;-80
2021/07/12 08:17:37;;;;;;;24.90;7.88;;;;;;;;;;5045920;28;20072;-80
2021/07/12 08:20:05;;;;;;;22.70;7.30;;;;;;;;;;5023006;28;20079;-79
2021/07/12 08:22:31;;;;;;;27.35;7.53;;;;;;;;;;5043804;28;20021;-79
2021/07/12 08:24:57;;;;;;;20.23;7.03;;;;;;;;;;5049449;28;20033;-80
2021/07/12 08:27:23;;;;;;;25.05;7.88;;;;;;;;;;5026148;28;20037;-78
2021/07/12 08:29:50;;;;;;;21.05;7.38;;;;;;;;;;5050699;28;20033;-78
2021/07/12 08:32:16;;;;;;;17.98;6.93;;;;;;;;;;5055250;28;20025;-79
2021/07/12 08:34:42;;;;;;;29.60;7.78;;;;;;;;;;5055583;28;20040;-78
2021/07/12 08:37:09;;;;;;;21.13;7.05;;;;;;;;;;5053393;28;20036;-77
2021/07/12 08:39:35;;;;;;;26.42;7.38;;;;;;;;;;5036131;28;20025;-78
2021/07/12 08:42:01;;;;;;;16.52;6.55;;;;;;;;;;5037619;28;20043;-77
2021/07/12 08:44:28;;;;;;;19.65;6.93;;;;;;;;;;5055201;28;20029;-77
2021/07/12 08:46:54;;;;;;;22.73;6.78;;;;;;;;;;5054888;28;20032;-78
2021/07/12 08:49:20;;;;;;;19.45;7.32;;;;;;;;;;5055142;28;20037;-78
2021/07/12 08:51:46;;;;;;;18.90;6.38;;;;;;;;;;5054146;28;20435;-77
2021/07/12 08:54:12;;;;;;;23.77;6.70;;;;;;;;;;5053156;28;20066;-77
2021/07/12 08:56:39;;;;;;;18.48;6.43;;;;;;;;;;5054833;28;20021;-77
2021/07/12 08:59:23;;;;;;;14.70;5.22;;;;;;;;;;5055188;28;20097;-78
2021/07/12 09:02:06;;;;;;;17.13;6.07;;;;;;;;;;5044480;28;20021;-80
2021/07/12 09:04:33;;;;;;;16.75;6.05;;;;;;;;;;5038068;28;20563;-80
2021/07/12 09:07:00;;;;;;;22.20;6.65;;;;;;;;;;5043201;28;20032;-78
2021/07/12 09:09:26;;;;;;;17.70;6.63;;;;;;;;;;5057919;28;20063;-79
2021/07/12 09:11:52;;;;;;;20.30;5.90;;;;;;;;;;5039841;28;20036;-79
2021/07/12 09:14:19;;;;;;;15.48;5.85;;;;;;;;;;5072210;28;20029;-79
2021/07/12 09:16:52;;;;;;;14.27;6.15;;;;;;;;;;5053070;28;20109;-78
2021/07/12 09:19:24;;;;;;;19.58;6.45;;;;;;;;;;5053525;28;20033;-78
2021/07/12 09:22:05;;;;;;;22.17;6.18;;;;;;;;;;5052237;28;20025;-79
2021/07/12 09:24:35;;;;;;;24.10;6.60;;;;;;;;;;5032760;28;20402;-77
2021/07/12 09:27:09;;;;;;;18.92;6.60;;;;;;;;;;5049954;28;20080;-78
2021/07/12 09:29:43;;;;;;;15.80;6.35;;;;;;;;;;5038327;28;20043;-78
2021/07/12 09:32:10;;;;;;;23.45;7.15;;;;;;;;;;5043733;28;20048;-80
2021/07/12 09:34:37;;;;;;;15.73;5.93;;;;;;;;;;5042943;28;20082;-80
2021/07/12 09:37:03;;;;;;;13.45;5.68;;;;;;;;;;5045946;28;20148;-78
2021/07/12 09:39:32;;;;;;;18.27;6.45;;;;;;;;;;5055136;28;20028;-78
2021/07/12 09:42:05;;;;;;;15.50;5.93;;;;;;;;;;5053267;28;20089;-79
2021/07/12 09:44:32;;;;;;;16.15;5.90;;;;;;;;;;5055166;28;20025;-78
2021/07/12 09:47:05;;;;;;;12.38;5.47;;;;;;;;;;5036509;28;20416;-77
2021/07/12 09:49:31;;;;;;;20.63;6.22;;;;;;;;;;5044205;28;20021;-76
2021/07/12 09:51:59;;;;;;;17.75;6.28;;;;;;;;;;5034409;28;20121;-77
2021/07/12 09:54:27;;;;;;;21.85;6.30;;;;;;;;;;5065523;28;20026;-76
2021/07/12 09:56:54;;;;;;;20.25;6.38;;;;;;;;;;5053178;28;20479;-76
2021/07/12 09:59:21;;;;;;;16.80;6.18;;;;;;;;;;5053330;28;20029;-76
2021/07/12 10:01:51;;;;;;;18.23;6.35;;;;;;;;;;5052896;28;20103;-76
2021/07/12 10:04:17;;;;;;;15.55;5.85;;;;;;;;;;5038304;28;20372;-76
2021/07/12 10:06:46;;;;;;;16.20;5.68;;;;;;;;;;5052306;28;20025;-77
2021/07/12 10:09:13;;;;;;;17.23;6.40;;;;;;;;;;5065112;28;20024;-76
2021/07/12 10:11:40;;;;;;;22.40;6.68;;;;;;;;;;5062731;28;20032;-76
2021/07/12 10:14:06;;;;;;;13.45;6.30;;;;;;;;;;5052735;28;20021;-76
2021/07/12 10:16:32;;;;;;;15.98;6.03;;;;;;;;;;5049076;28;20059;-76
2021/07/12 10:18:59;;;;;;;18.67;5.75;;;;;;;;;;5051809;28;20391;-76
2021/07/12 10:21:33;;;;;;;10.98;6.13;;;;;;;;;;5061354;28;20117;-76
2021/07/12 10:23:59;;;;;;;11.38;5.45;;;;;;;;;;5054347;28;20049;-76
2021/07/12 10:26:41;;;;;;;12.85;5.40;;;;;;;;;;5051272;28;20086;-77
2021/07/12 10:29:15;;;;;;;12.35;5.78;;;;;;;;;;5032839;28;20096;-76
2021/07/12 10:31:54;;;;;;;12.48;6.53;;;;;;;;;;5031157;28;20533;-76
2021/07/12 10:34:24;;;;;;;15.50;6.18;;;;;;;;;;5054430;28;20557;-76
2021/07/12 10:36:57;;;;;;;12.73;5.63;;;;;;;;;;5072408;28;20021;-76
2021/07/12 10:39:23;;;;;;;10.15;5.57;;;;;;;;;;5049705;28;20028;-76
2021/07/12 10:41:49;;;;;;;15.65;5.60;;;;;;;;;;5055706;28;20062;-76
2021/07/12 10:44:15;;;;;;;10.68;5.28;;;;;;;;;;5052892;28;20470;-76
2021/07/12 10:46:42;;;;;;;13.43;6.07;;;;;;;;;;5050211;28;20035;-76
2021/07/12 10:49:26;;;;;;;13.57;6.05;;;;;;;;;;5042047;28;20044;-76
2021/07/12 10:51:52;;;;;;;10.10;5.47;;;;;;;;;;5040286;28;20080;-77
2021/07/12 10:54:20;;;;;;;11.38;6.38;;;;;;;;;;5047804;28;20408;-76
2021/07/12 10:56:57;;;;;;;12.55;6.05;;;;;;;;;;5050342;28;20468;-76
2021/07/12 10:59:26;;;;;;;17.15;6.75;;;;;;;;;;5036551;28;20099;-77
2021/07/12 11:01:53;;;;;;;17.83;7.22;;;;;;;;;;5026797;28;20497;-76
2021/07/12 11:04:41;;;;;;;13.07;6.65;;;;;;;;;;5012846;28;20032;-76
2021/07/12 11:07:08;;;;;;;18.05;6.47;;;;;;;;;;5030052;28;20493;-76
2021/07/12 11:09:43;;;;;;;13.90;6.70;;;;;;;;;;5030658;28;20026;-76
2021/07/12 11:12:28;;;;;;;14.00;7.10;;;;;;;;;;5027876;28;20037;-77
2021/07/12 11:15:06;;;;;;;13.95;6.45;;;;;;;;;;5032147;28;20515;-77
2021/07/12 11:17:47;;;;;;;24.45;7.57;;;;;;;;;;5034868;28;20040;-78
2021/07/12 11:20:14;;;;;;;19.48;6.75;;;;;;;;;;5055856;28;20438;-78
2021/07/12 11:22:55;;;;;;;16.23;7.20;;;;;;;;;;5046709;28;20045;-78
2021/07/12 11:25:40;;;;;;;12.95;6.03;;;;;;;;;;5045044;28;20032;-78
2021/07/12 11:28:16;;;;;;;14.15;7.10;;;;;;;;;;5042140;28;20087;-80
2021/07/12 11:30:42;;;;;;;12.88;6.95;;;;;;;;;;5022598;28;20578;-78
2021/07/12 11:33:09;;;;;;;14.43;7.10;;;;;;;;;;5049781;28;20029;-79
2021/07/12 11:35:35;;;;;;;15.63;6.25;;;;;;;;;;5056071;28;20029;-78
2021/07/12 11:38:02;;;;;;;10.57;6.55;;;;;;;;;;5054783;28;20027;-79
2021/07/12 11:40:28;;;;;;;11.93;6.50;;;;;;;;;;5056738;28;20028;-79
2021/07/12 11:42:54;;;;;;;12.52;6.68;;;;;;;;;;5050563;28;20047;-78
2021/07/12 11:45:23;;;;;;;10.68;6.78;;;;;;;;;;5044771;28;20021;-79
2021/07/12 11:47:55;;;;;;;17.65;6.65;;;;;;;;;;5027522;28;20025;-79
2021/07/12 11:50:23;;;;;;;15.63;6.23;;;;;;;;;;5042122;28;20590;-79
2021/07/12 11:52:50;;;;;;;10.77;6.22;;;;;;;;;;5044060;28;20021;-77
2021/07/12 11:55:18;;;;;;;10.63;6.05;;;;;;;;;;5041866;28;20032;-78
2021/07/12 11:57:46;;;;;;;13.80;6.55;;;;;;;;;;5050515;28;20029;-79
2021/07/12 12:00:17;;;;;;;9.65;6.55;;;;;;;;;;5035227;28;20463;-79
2021/07/12 12:02:43;;;;;;;10.65;5.72;;;;;;;;;;5052796;28;20068;-78
2021/07/12 12:05:11;;;;;;;10.43;5.53;;;;;;;;;;5053717;28;20060;-79
2021/07/12 12:07:41;;;;;;;9.35;5.78;;;;;;;;;;5052127;28;20028;-77
2021/07/12 12:10:23;;;;;;;12.75;5.90;;;;;;;;;;5049542;28;20109;-77
2021/07/12 12:12:59;;;;;;;10.80;5.60;;;;;;;;;;5051595;28;20103;-78
2021/07/12 12:15:25;;;;;;;9.07;5.63;;;;;;;;;;5033292;28;20024;-79
2021/07/12 12:17:54;;;;;;;11.30;5.40;;;;;;;;;;5052164;28;20163;-79
2021/07/12 12:20:22;;;;;;;11.80;5.63;;;;;;;;;;5052967;28;20151;-78
2021/07/12 12:22:56;;;;;;;9.40;5.55;;;;;;;;;;5032051;28;20045;-76
2021/07/12 12:25:22;;;;;;;15.32;5.57;;;;;;;;;;5047135;28;20040;-76
2021/07/12 12:27:49;;;;;;;8.90;4.40;;;;;;;;;;5040181;28;20302;-75
2021/07/12 12:30:15;;;;;;;13.77;5.05;;;;;;;;;;5014968;28;20052;-76
2021/07/12 12:32:41;;;;;;;8.25;4.85;;;;;;;;;;5037028;28;20128;-75
2021/07/12 12:35:08;;;;;;;10.30;5.18;;;;;;;;;;5044615;28;20459;-78
2021/07/12 12:37:41;;;;;;;7.13;4.88;;;;;;;;;;5035093;28;20021;-78
2021/07/12 12:40:29;;;;;;;9.82;4.47;;;;;;;;;;5019085;28;20479;-78
2021/07/12 12:42:55;;;;;;;7.90;4.30;;;;;;;;;;5030959;28;20117;-76
2021/07/12 12:45:28;;;;;;;6.18;4.40;;;;;;;;;;5048587;28;20017;-75
2021/07/12 12:47:55;;;;;;;10.05;4.35;;;;;;;;;;5039514;28;20025;-76
2021/07/12 12:50:22;;;;;;;8.52;4.45;;;;;;;;;;5048307;28;20021;-75
2021/07/12 12:52:48;;;;;;;9.38;4.78;;;;;;;;;;5048775;28;20459;-76
2021/07/12 12:55:15;;;;;;;6.38;4.65;;;;;;;;;;5020490;28;20876;-77
2021/07/12 12:57:43;;;;;;;7.90;4.57;;;;;;;;;;5037202;28;20506;-76
2021/07/12 13:00:13;;;;;;;7.30;4.47;;;;;;;;;;5040671;28;20045;-76
2021/07/12 13:02:43;;;;;;;6.10;4.03;;;;;;;;;;5047780;28;20055;-77
2021/07/12 13:05:14;;;;;;;5.82;3.97;;;;;;;;;;5041246;28;20025;-76
2021/07/12 13:07:46;;;;;;;7.25;3.90;;;;;;;;;;5046672;28;20103;-76
2021/07/12 13:10:14;;;;;;;5.90;3.90;;;;;;;;;;5036258;28;20560;-76
2021/07/12 13:12:41;;;;;;;7.97;3.67;;;;;;;;;;5051825;28;20025;-77
2021/07/12 13:15:10;;;;;;;7.90;4.13;;;;;;;;;;5051714;28;20123;-77
2021/07/12 13:17:37;;;;;;;7.55;3.75;;;;;;;;;;5048774;28;20025;-77
2021/07/12 13:20:06;;;;;;;4.38;3.50;;;;;;;;;;5051980;28;20116;-76
2021/07/12 13:22:33;;;;;;;8.80;3.97;;;;;;;;;;5052995;28;20083;-76
2021/07/12 13:25:05;;;;;;;3.88;2.35;;;;;;;;;;5035461;28;20060;-76
2021/07/12 13:27:31;;;;;;;8.43;2.47;;;;;;;;;;5035133;28;20025;-77
2021/07/12 13:29:58;;;;;;;2.90;2.00;;;;;;;;;;5034779;28;20181;-76
2021/07/12 13:32:24;;;;;;;3.10;2.05;;;;;;;;;;5052228;28;20054;-77
2021/07/12 13:34:52;;;;;;;4.25;2.00;;;;;;;;;;5052885;28;20033;-76
2021/07/12 13:37:18;;;;;;;7.00;2.05;;;;;;;;;;5050432;28;20017;-77
2021/07/12 13:39:44;;;;;;;4.05;2.28;;;;;;;;;;5047386;28;20025;-79
2021/07/12 13:42:10;;;;;;;2.35;1.70;;;;;;;;;;5035639;28;20488;-79
2021/07/12 13:44:36;;;;;;;3.08;1.58;;;;;;;;;;5036347;28;20054;-77
2021/07/12 13:47:02;;;;;;;2.72;1.70;;;;;;;;;;5053859;28;20033;-77
2021/07/12 13:49:29;;;;;;;2.80;1.55;;;;;;;;;;5052952;28;20036;-77
2021/07/12 13:51:55;;;;;;;3.63;1.40;;;;;;;;;;5051516;28;20396;-76
2021/07/12 13:54:21;;;;;;;14.05;1.50;;;;;;;;;;5052878;28;20076;-76
2021/07/12 13:56:47;;;;;;;2.33;1.25;;;;;;;;;;5044268;28;20025;-77
2021/07/12 13:59:15;;;;;;;2.28;1.48;;;;;;;;;;5045047;28;20117;-79
2021/07/12 14:01:41;;;;;;;3.70;0.93;;;;;;;;;;5048335;28;20025;-77
2021/07/12 14:04:07;;;;;;;5.13;1.10;;;;;;;;;;5018017;28;20034;-77
2021/07/12 14:06:33;;;;;;;1.42;1.02;;;;;;;;;;5047898;28;20500;-77
2021/07/12 14:09:00;;;;;;;4.22;0.90;;;;;;;;;;5044548;28;20469;-78
2021/07/12 14:11:26;;;;;;;1.88;1.30;;;;;;;;;;5038249;28;20111;-78
2021/07/12 14:13:52;;;;;;;2.47;1.13;;;;;;;;;;5034141;28;20033;-77
2021/07/12 14:16:23;;;;;;;3.35;1.10;;;;;;;;;;5046331;28;20032;-77
2021/07/12 14:18:50;;;;;;;2.28;1.13;;;;;;;;;;5040912;28;20051;-78
2021/07/12 14:21:17;;;;;;;3.90;0.95;;;;;;;;;;5044649;28;20037;-78
2021/07/12 14:23:43;;;;;;;3.40;1.05;;;;;;;;;;5028587;28;20051;-78
2021/07/12 14:26:09;;;;;;;4.97;1.02;;;;;;;;;;5046065;28;20043;-78
2021/07/12 14:28:35;;;;;;;2.00;1.00;;;;;;;;;;5048199;28;20029;-79
2021/07/12 14:31:01;;;;;;;2.35;1.25;;;;;;;;;;5019457;28;20041;-79
2021/07/12 14:33:27;;;;;;;2.63;1.00;;;;;;;;;;5040814;28;20100;-79
2021/07/12 14:35:54;;;;;;;1.92;0.85;;;;;;;;;;5023251;28;20043;-77
2021/07/12 14:38:25;;;;;;;2.08;0.90;;;;;;;;;;5036403;28;20026;-77